Astrid Conroy — ZGAQ5 — position and weather

sailwx.info

Track history (hours):
 
Tides and Currents Weather Stations Pressure Air Temp Water Temp Dewpoint Dewpoint Depression Visibility Wind Speed Wind Dir Waves Ship Positions

Astrid Conroy

Last reported at 2017-Oct-25 21:00 UTC. Time now 2017-Dec-12 18:03 UTC.
Position N 37°04' W 001°18'.
Warning: this ship's position is 47 days out of date.

Length 58 m; draft 3.5 m.

Type: Pleasure craft. MMSI: 319031500.

Date/timePositionNaut miles runAvg speedWind from/ knotsBaromVisibWave heightAir tempDewpointWater temp
2017-Oct-25 21:00N 37°04' W 001°18'815.8
2017-Oct-25 20:30N 37°09' W 001°10'2015.6
2017-Oct-25 19:12N 37°23' W 000°51'315.9
2017-Oct-25 19:00N 37°25' W 000°48'1116.0
2017-Oct-25 18:21N 37°32' W 000°38'815.9
2017-Oct-25 17:51N 37°37' W 000°31'615.8
2017-Oct-25 17:29N 37°42' W 000°27'1315.5
2017-Oct-25 16:38N 37°52' W 000°16'315.4
2017-Oct-25 16:25N 37°54' W 000°13'715.3
2017-Oct-25 16:00N 37°58' W 000°07'715.3
2017-Oct-25 15:30N 38°04' W 000°01'815.2
2017-Oct-25 15:00N 38°10' E 000°06'714.9
2017-Oct-25 14:30N 38°15' E 000°12'915.1
2017-Oct-25 13:54N 38°22' E 000°20'615.3
2017-Oct-25 13:30N 38°26' E 000°25'815.4
2017-Oct-25 13:00N 38°32' E 000°32'2915.1
2017-Oct-25 11:06N 38°54' E 000°56'1014.7
2017-Oct-25 10:25N 39°01' E 001°05'714.6
2017-Oct-25 09:56N 39°06' E 001°11'714.6
2017-Oct-25 09:28N 39°11' E 001°17'35714.4
2017-Oct-24 08:40N 43°20' E 006°57'213.4
2017-Oct-24 08:30N 43°22' E 006°59'713.7
2017-Oct-24 08:00N 43°27' E 007°05'713.8
2017-Oct-24 07:29N 43°34' E 007°10'  
2017-Oct-17 20:12N 43°35' E 007°08'0 0.0
2017-Oct-17 20:00N 43°35' E 007°08'0 0.0
2017-Oct-17 16:00N 43°35' E 007°08'0 0.0
2017-Oct-17 15:18N 43°35' E 007°08'0 0.0
2017-Oct-17 14:54N 43°35' E 007°08'0 0.0
2017-Oct-17 11:30N 43°35' E 007°08'  
Track history (hours):
 
Tides and Currents Weather Stations Pressure Air Temp Water Temp Dewpoint Dewpoint Depression Visibility Wind Speed Wind Dir Waves Ship Positions

Astrid Conroy

Last reported at 2017-Oct-25 21:00 UTC. Time now 2017-Dec-12 18:03 UTC.
Position N 37°04' W 001°18'.
Warning: this ship's position is 47 days out of date.

Length 58 m; draft 3.5 m.

Type: Pleasure craft. MMSI: 319031500.

Date/timePositionNaut miles runAvg speedWind from/ knotsBaromVisibWave heightAir tempDewpointWater temp
2017-Oct-25 21:00N 37°04' W 001°18'815.8
2017-Oct-25 20:30N 37°09' W 001°10'2015.6
2017-Oct-25 19:12N 37°23' W 000°51'315.9
2017-Oct-25 19:00N 37°25' W 000°48'1116.0
2017-Oct-25 18:21N 37°32' W 000°38'815.9
2017-Oct-25 17:51N 37°37' W 000°31'615.8
2017-Oct-25 17:29N 37°42' W 000°27'1315.5
2017-Oct-25 16:38N 37°52' W 000°16'315.4
2017-Oct-25 16:25N 37°54' W 000°13'715.3
2017-Oct-25 16:00N 37°58' W 000°07'715.3
2017-Oct-25 15:30N 38°04' W 000°01'815.2
2017-Oct-25 15:00N 38°10' E 000°06'714.9
2017-Oct-25 14:30N 38°15' E 000°12'915.1
2017-Oct-25 13:54N 38°22' E 000°20'615.3
2017-Oct-25 13:30N 38°26' E 000°25'815.4
2017-Oct-25 13:00N 38°32' E 000°32'2915.1
2017-Oct-25 11:06N 38°54' E 000°56'1014.7
2017-Oct-25 10:25N 39°01' E 001°05'714.6
2017-Oct-25 09:56N 39°06' E 001°11'714.6
2017-Oct-25 09:28N 39°11' E 001°17'35714.4
2017-Oct-24 08:40N 43°20' E 006°57'213.4
2017-Oct-24 08:30N 43°22' E 006°59'713.7
2017-Oct-24 08:00N 43°27' E 007°05'713.8
2017-Oct-24 07:29N 43°34' E 007°10'  
2017-Oct-17 20:12N 43°35' E 007°08'0 0.0
2017-Oct-17 20:00N 43°35' E 007°08'0 0.0
2017-Oct-17 16:00N 43°35' E 007°08'0 0.0
2017-Oct-17 15:18N 43°35' E 007°08'0 0.0
2017-Oct-17 14:54N 43°35' E 007°08'0 0.0
2017-Oct-17 11:30N 43°35' E 007°08'  

Dump ship's entire track history